Donna, Texas
Current Conditions -  °F | °C
As of 9:15 PM on Monday 20 Oct 2014 (Local Time) from KT65 Reporting Station
Scattered Clouds Scattered Clouds  
Wind Chill: 73°   Ceiling: Unl
Heat Index: 73°   Visibility: 10mi
Dew Point: 67°   Wind: 5mph
Humidity: 82%   Direction: 30°NNE
Pressure: 29.95"   Gusts: NA
Location:  26.17°N, 98.04°W
Report Text: KT65 210215Z AUTO 03004KT 10SM SCT100 23/20 A2995 RMK AO2 T02300197
Loading
Personal Weather Stations






























Interactive Weather Map
Tropical Storm Tracking
New forecast layout! Learn more

10-Day Weather Forecast

Advertisements
Track Severe Weather on mobile